createdAt,value
2022-11-20T00:00:54.897Z,99286.53
2022-11-20T00:03:21.712Z,99260.59
2022-11-20T00:05:48.419Z,99266.03
2022-11-20T00:08:15.214Z,99266.56
2022-11-20T00:10:41.966Z,99268.91
2022-11-20T00:13:09.078Z,99264.75
2022-11-20T00:15:35.777Z,99268.91
2022-11-20T00:18:02.524Z,99265.25
2022-11-20T00:20:29.262Z,99266.31
2022-11-20T00:22:55.968Z,99255.97
2022-11-20T00:25:22.658Z,99264.75
2022-11-20T00:27:49.336Z,99258.00
2022-11-20T00:30:16.033Z,99270.72
2022-11-20T00:32:42.722Z,99258.00
2022-11-20T00:35:09.554Z,99250.25
2022-11-20T00:37:36.199Z,99237.13
2022-11-20T00:40:02.877Z,99252.44
2022-11-20T00:42:29.753Z,99258.59
2022-11-20T00:44:56.483Z,99278.81
2022-11-20T00:47:23.206Z,99301.31
2022-11-20T00:49:49.876Z,99296.91
2022-11-20T00:52:16.526Z,99292.72
2022-11-20T00:54:43.170Z,99287.53
2022-11-20T00:57:09.867Z,99275.94
2022-11-20T00:59:36.526Z,99283.47
2022-11-20T01:02:03.229Z,99281.41
2022-11-20T01:04:29.960Z,99272.63
2022-11-20T01:06:56.685Z,99262.03
2022-11-20T01:09:23.648Z,99270.13
2022-11-20T01:11:50.586Z,99269.59
2022-11-20T01:14:19.885Z,99281.25
2022-11-20T01:16:49.345Z,99282.06
2022-11-20T01:19:22.319Z,99278.47
2022-11-20T01:21:51.496Z,99287.25
2022-11-20T01:24:20.159Z,99282.63
2022-11-20T01:26:49.941Z,99283.66
2022-11-20T01:29:20.053Z,99279.44
2022-11-20T01:31:47.135Z,99274.25
2022-11-20T01:34:15.920Z,99275.78
2022-11-20T01:36:44.024Z,99268.44
2022-11-20T01:39:15.140Z,99268.66
2022-11-20T01:42:04.510Z,99257.97
2022-11-20T01:44:55.932Z,99255.34
2022-11-20T01:47:40.883Z,99246.94
2022-11-20T01:50:14.579Z,99251.56
2022-11-20T01:52:45.297Z,99255.66
2022-11-20T01:55:20.050Z,99237.22
2022-11-20T01:57:48.107Z,99236.88
2022-11-20T02:00:16.577Z,99232.69
2022-11-20T02:02:46.488Z,99235.56
2022-11-20T02:05:33.906Z,99231.38
2022-11-20T02:08:01.160Z,99236.34
2022-11-20T02:10:28.279Z,99240.41
2022-11-20T02:13:14.101Z,99248.75
2022-11-20T02:15:41.411Z,99243.06
2022-11-20T02:18:08.987Z,99237.06
2022-11-20T02:20:35.749Z,99230.41
2022-11-20T02:23:10.518Z,99228.84
2022-11-20T02:25:37.986Z,99231.66
2022-11-20T02:28:05.332Z,99227.72
2022-11-20T02:30:32.051Z,99219.66
2022-11-20T02:32:59.497Z,99231.59
2022-11-20T02:35:26.122Z,99237.81
2022-11-20T02:37:55.711Z,99224.91
2022-11-20T02:40:22.896Z,99206.69
2022-11-20T02:42:53.188Z,99208.22
2022-11-20T02:45:19.979Z,99212.06
2022-11-20T02:47:47.000Z,99209.69
2022-11-20T02:50:13.850Z,99207.09
2022-11-20T02:52:40.540Z,99219.03
2022-11-20T02:55:07.746Z,99225.59
2022-11-20T02:57:34.495Z,99233.59
2022-11-20T03:00:01.215Z,99236.41
2022-11-20T03:02:31.291Z,99232.25
2022-11-20T03:04:58.104Z,99230.72
2022-11-20T03:07:25.102Z,99215.16
2022-11-20T03:09:51.814Z,99208.09
2022-11-20T03:12:18.469Z,99203.13
2022-11-20T03:14:48.895Z,99207.25
2022-11-20T03:17:18.404Z,99211.94
2022-11-20T03:19:45.061Z,99215.03
2022-11-20T03:22:11.770Z,99213.50
2022-11-20T03:24:38.407Z,99209.81
2022-11-20T03:27:05.229Z,99220.66
2022-11-20T03:29:31.948Z,99233.16
2022-11-20T03:31:58.616Z,99241.41
2022-11-20T03:34:25.290Z,99239.25
2022-11-20T03:36:51.998Z,99248.78
2022-11-20T03:39:18.820Z,99222.63
2022-11-20T03:41:45.829Z,99214.28
2022-11-20T03:44:12.811Z,99214.28
2022-11-20T03:46:39.708Z,99216.41
2022-11-20T03:49:06.475Z,99220.25
2022-11-20T03:51:35.005Z,99225.38
2022-11-20T03:54:06.968Z,99226.38
2022-11-20T03:56:36.386Z,99226.06
2022-11-20T03:59:03.792Z,99220.03
2022-11-20T04:01:32.976Z,99223.16
2022-11-20T04:04:00.046Z,99221.81
2022-11-20T04:06:31.810Z,99215.84
2022-11-20T04:08:59.662Z,99215.41
2022-11-20T04:11:31.550Z,99206.78
2022-11-20T04:14:12.622Z,99205.91
2022-11-20T04:16:39.346Z,99213.53
2022-11-20T04:19:07.854Z,99202.31
2022-11-20T04:21:34.621Z,99195.88
2022-11-20T04:24:01.467Z,99195.31
2022-11-20T04:26:29.223Z,99194.47
2022-11-20T04:28:56.674Z,99187.97
2022-11-20T04:31:25.967Z,99182.72
2022-11-20T04:33:52.800Z,99178.78
2022-11-20T04:36:21.529Z,99170.44
2022-11-20T04:38:56.571Z,99175.84
2022-11-20T04:41:26.230Z,99179.16
2022-11-20T04:44:02.786Z,99181.19
2022-11-20T04:46:30.665Z,99182.25
2022-11-20T04:48:57.415Z,99182.66
2022-11-20T04:51:24.290Z,99175.56
2022-11-20T04:53:50.948Z,99165.91
2022-11-20T04:56:17.826Z,99161.56
2022-11-20T04:58:44.470Z,99158.53
2022-11-20T05:01:13.171Z,99158.31
2022-11-20T05:03:42.544Z,99142.56
2022-11-20T05:06:10.954Z,99149.28
2022-11-20T05:08:37.782Z,99161.97
2022-11-20T05:11:07.034Z,99169.69
2022-11-20T05:13:33.759Z,99164.97
2022-11-20T05:16:08.013Z,99164.13
2022-11-20T05:18:35.953Z,99161.47
2022-11-20T05:21:02.915Z,99161.28
2022-11-20T05:23:31.663Z,99155.44
2022-11-20T05:25:59.602Z,99159.28
2022-11-20T05:28:28.525Z,99153.81
2022-11-20T05:30:55.348Z,99147.78
2022-11-20T05:33:22.552Z,99140.00
2022-11-20T05:35:49.577Z,99140.78
2022-11-20T05:38:16.506Z,99134.03
2022-11-20T05:40:43.174Z,99132.28
2022-11-20T05:43:09.802Z,99143.63
2022-11-20T05:45:36.534Z,99147.84
2022-11-20T05:48:03.364Z,99156.28
2022-11-20T05:50:30.059Z,99154.94
2022-11-20T05:53:00.454Z,99157.31
2022-11-20T05:55:27.890Z,99158.88
2022-11-20T05:57:55.867Z,99166.66
2022-11-20T06:00:23.098Z,99173.47
2022-11-20T06:02:50.013Z,99161.28
2022-11-20T06:05:16.916Z,99164.34
2022-11-20T06:07:43.807Z,99170.88
2022-11-20T06:10:10.885Z,99161.63
2022-11-20T06:12:37.553Z,99166.25
2022-11-20T06:15:05.611Z,99164.34
2022-11-20T06:17:32.290Z,99169.72
2022-11-20T06:19:59.016Z,99162.44
2022-11-20T06:22:25.619Z,99169.09
2022-11-20T06:24:52.303Z,99160.00
2022-11-20T06:27:18.996Z,99154.41
2022-11-20T06:29:45.759Z,99162.72
2022-11-20T06:32:12.525Z,99170.41
2022-11-20T06:34:39.259Z,99182.34
2022-11-20T06:37:05.950Z,99171.75
2022-11-20T06:39:32.614Z,99176.75
2022-11-20T06:41:59.534Z,99180.78
2022-11-20T06:44:26.647Z,99185.63
2022-11-20T06:46:53.361Z,99194.84
2022-11-20T06:49:20.436Z,99197.50
2022-11-20T06:51:47.363Z,99200.53
2022-11-20T06:54:14.112Z,99203.25
2022-11-20T06:56:40.810Z,99213.56
2022-11-20T06:59:08.161Z,99207.78
2022-11-20T07:01:35.922Z,99205.97
2022-11-20T07:04:03.974Z,99196.06
2022-11-20T07:06:30.878Z,99198.28
2022-11-20T07:08:57.975Z,99203.13
2022-11-20T07:11:25.827Z,99201.50
2022-11-20T07:13:52.491Z,99208.13
2022-11-20T07:16:19.526Z,99204.97
2022-11-20T07:18:50.438Z,99212.03
2022-11-20T07:21:17.781Z,99208.28
2022-11-20T07:23:44.453Z,99210.00
2022-11-20T07:26:11.875Z,99210.97
2022-11-20T07:28:38.909Z,99217.31
2022-11-20T07:31:07.694Z,99218.78
2022-11-20T07:33:34.513Z,99224.66
2022-11-20T07:36:01.246Z,99225.34
2022-11-20T07:38:28.383Z,99221.00
2022-11-20T07:40:56.697Z,99215.31
2022-11-20T07:43:23.298Z,99218.59
2022-11-20T07:45:49.995Z,99216.38
2022-11-20T07:48:16.793Z,99223.91
2022-11-20T07:50:43.506Z,99213.88
2022-11-20T07:53:10.130Z,99212.41
2022-11-20T07:55:37.119Z,99201.00
2022-11-20T07:58:03.902Z,99206.00
2022-11-20T08:00:30.719Z,99206.97
2022-11-20T08:02:57.396Z,99200.09
2022-11-20T08:05:24.312Z,99206.63
2022-11-20T08:07:51.053Z,99207.47
2022-11-20T08:10:18.052Z,99200.81
2022-11-20T08:13:07.654Z,99206.97
2022-11-20T08:15:35.026Z,99203.66
2022-11-20T08:21:03.251Z,99216.34
2022-11-20T08:23:29.944Z,99215.94
2022-11-20T08:25:56.645Z,99213.38
2022-11-20T08:28:23.286Z,99216.03
2022-11-20T08:30:50.992Z,99214.44
2022-11-20T08:33:18.620Z,99209.28
2022-11-20T08:35:45.383Z,99199.22
2022-11-20T08:38:12.253Z,99204.66
2022-11-20T08:40:38.970Z,99205.78
2022-11-20T08:43:05.591Z,99213.84
2022-11-20T08:45:34.621Z,99215.38
2022-11-20T08:48:03.172Z,99218.78
2022-11-20T08:50:33.213Z,99221.53
2022-11-20T08:53:06.576Z,99223.47
2022-11-20T08:55:33.882Z,99227.72
2022-11-20T08:58:05.194Z,99231.06
2022-11-20T09:00:31.985Z,99228.41
2022-11-20T09:02:59.594Z,99237.44
2022-11-20T09:05:26.264Z,99239.41
2022-11-20T09:07:52.918Z,99239.75
2022-11-20T09:10:24.512Z,99236.06
2022-11-20T09:12:52.845Z,99239.19
2022-11-20T09:15:20.033Z,99238.28
2022-11-20T09:18:01.770Z,99242.50
2022-11-20T09:20:29.963Z,99237.00
2022-11-20T09:22:57.777Z,99242.41
2022-11-20T09:25:24.511Z,99249.94
2022-11-20T09:27:58.519Z,99250.25
2022-11-20T09:30:25.774Z,99246.28
2022-11-20T09:32:53.594Z,99244.50
2022-11-20T09:35:20.405Z,99249.91
2022-11-20T09:37:47.095Z,99232.59
2022-11-20T09:40:30.498Z,99228.88
2022-11-20T09:43:21.105Z,99225.41
2022-11-20T09:45:56.767Z,99231.75
2022-11-20T09:48:32.969Z,99231.28
2022-11-20T09:51:15.070Z,99232.34
2022-11-20T09:54:08.204Z,99235.28
2022-11-20T09:56:36.075Z,99236.06
2022-11-20T09:59:05.597Z,99228.53
2022-11-20T10:01:35.311Z,99229.59
2022-11-20T10:04:03.281Z,99228.03
2022-11-20T10:06:35.238Z,99223.88
2022-11-20T10:09:08.438Z,99218.13
2022-11-20T10:11:53.095Z,99210.66
2022-11-20T10:14:28.069Z,99208.56
2022-11-20T10:17:18.609Z,99207.03
2022-11-20T10:20:00.826Z,99202.25
2022-11-20T10:22:33.577Z,99195.81
2022-11-20T10:25:05.852Z,99199.19
2022-11-20T10:27:55.642Z,99192.66
2022-11-20T10:30:25.845Z,99179.81
2022-11-20T10:33:00.454Z,99179.44
2022-11-20T10:35:39.885Z,99173.63
2022-11-20T10:38:14.249Z,99173.28
2022-11-20T10:40:44.447Z,99178.56
2022-11-20T10:43:17.714Z,99178.84
2022-11-20T10:45:50.603Z,99191.44
2022-11-20T10:48:22.461Z,99188.53
2022-11-20T10:50:58.527Z,99195.97
2022-11-20T10:53:37.436Z,99193.34
2022-11-20T10:56:13.247Z,99191.69
2022-11-20T10:59:01.218Z,99177.78
2022-11-20T11:01:28.204Z,99177.38
2022-11-20T11:03:56.403Z,99187.63
2022-11-20T11:06:44.158Z,99194.47
2022-11-20T11:09:17.456Z,99201.88
2022-11-20T11:11:44.210Z,99206.28
2022-11-20T11:14:13.325Z,99203.00
2022-11-20T11:16:58.085Z,99203.44
2022-11-20T11:19:25.794Z,99203.41
2022-11-20T11:21:58.447Z,99204.53
2022-11-20T11:24:45.775Z,99203.41
2022-11-20T11:27:17.171Z,99219.13
2022-11-20T11:29:45.309Z,99213.78
2022-11-20T11:32:22.730Z,99216.75
2022-11-20T11:35:03.471Z,99229.94
2022-11-20T11:37:38.798Z,99228.81
2022-11-20T11:43:02.127Z,99213.53
2022-11-20T11:45:29.088Z,99218.69
2022-11-20T11:47:58.639Z,99205.91
2022-11-20T11:50:30.559Z,99198.56
2022-11-20T11:53:18.677Z,99187.31
2022-11-20T11:55:49.722Z,99183.47
2022-11-20T11:58:37.571Z,99174.84
2022-11-20T12:01:21.979Z,99176.91
2022-11-20T12:04:03.460Z,99174.16
2022-11-20T12:06:32.505Z,99176.09
2022-11-20T12:09:09.790Z,99175.47
2022-11-20T12:11:42.511Z,99188.25
2022-11-20T12:14:40.565Z,99181.03
2022-11-20T12:17:09.827Z,99188.31
2022-11-20T12:19:36.608Z,99181.84
2022-11-20T12:22:08.229Z,99177.88
2022-11-20T12:24:44.037Z,99179.88
2022-11-20T12:27:23.893Z,99183.41
2022-11-20T12:30:17.455Z,99171.03
2022-11-20T12:33:02.446Z,99171.34
2022-11-20T12:35:57.884Z,99156.78
2022-11-20T12:39:05.786Z,99147.06
2022-11-20T12:42:03.301Z,99150.81
2022-11-20T12:45:06.927Z,99140.47
2022-11-20T12:47:48.854Z,99149.19
2022-11-20T12:50:30.631Z,99148.34
2022-11-20T12:53:23.422Z,99147.69
2022-11-20T12:55:58.298Z,99142.06
2022-11-20T12:58:44.152Z,99148.94
2022-11-20T13:01:44.529Z,99150.50
2022-11-20T13:04:29.972Z,99151.81
2022-11-20T13:06:57.751Z,99160.31
2022-11-20T13:09:25.071Z,99149.44
2022-11-20T13:12:07.193Z,99148.50
2022-11-20T13:14:41.601Z,99154.56
2022-11-20T13:17:15.907Z,99164.16
2022-11-20T13:19:42.691Z,99166.81
2022-11-20T13:22:10.100Z,99161.84
2022-11-20T13:24:36.758Z,99166.97
2022-11-20T13:27:09.336Z,99163.03
2022-11-20T13:29:37.792Z,99161.25
2022-11-20T13:32:15.158Z,99165.03
2022-11-20T13:34:53.545Z,99166.47
2022-11-20T13:37:35.871Z,99164.66
2022-11-20T13:40:23.319Z,99157.41
2022-11-20T13:43:03.626Z,99151.00
2022-11-20T13:45:32.148Z,99143.13
2022-11-20T13:48:05.263Z,99142.44
2022-11-20T13:50:37.824Z,99146.78
2022-11-20T13:53:35.394Z,99150.06
2022-11-20T13:56:03.985Z,99135.28
2022-11-20T13:58:32.987Z,99138.63
2022-11-20T14:01:08.564Z,99132.22
2022-11-20T14:04:04.565Z,99131.69
2022-11-20T14:06:30.513Z,99131.44
2022-11-20T14:08:57.763Z,99125.94
2022-11-20T14:11:29.066Z,99127.81
2022-11-20T14:14:00.210Z,99130.63
2022-11-20T14:16:28.943Z,99133.13
2022-11-20T14:18:56.322Z,99140.13
2022-11-20T14:21:28.967Z,99132.97
2022-11-20T14:24:07.038Z,99125.31
2022-11-20T14:26:34.607Z,99122.75
2022-11-20T14:29:01.396Z,99124.75
2022-11-20T14:31:28.853Z,99136.47
2022-11-20T14:33:56.142Z,99137.38
2022-11-20T14:36:24.550Z,99143.84
2022-11-20T14:38:52.412Z,99141.25
2022-11-20T14:41:22.072Z,99146.00
2022-11-20T14:43:57.422Z,99150.44
2022-11-20T14:46:24.591Z,99143.97
2022-11-20T14:48:53.630Z,99140.28
2022-11-20T14:51:34.857Z,99141.78
2022-11-20T14:54:19.462Z,99143.75
2022-11-20T14:56:56.451Z,99144.47
2022-11-20T14:59:27.741Z,99148.72
2022-11-20T15:02:03.807Z,99150.66
2022-11-20T15:04:30.535Z,99160.28
2022-11-20T15:06:59.154Z,99165.28
2022-11-20T15:09:25.961Z,99170.16
2022-11-20T15:11:58.287Z,99156.91
2022-11-20T15:14:26.386Z,99160.22
2022-11-20T15:16:53.382Z,99163.66
2022-11-20T15:19:25.263Z,99162.25
2022-11-20T15:21:52.067Z,99155.72
2022-11-20T15:24:19.308Z,99155.34
2022-11-20T15:26:46.182Z,99166.19
2022-11-20T15:29:14.460Z,99164.09
2022-11-20T15:31:42.540Z,99161.00
2022-11-20T15:34:12.332Z,99161.91
2022-11-20T15:36:40.526Z,99160.63
2022-11-20T15:39:10.244Z,99157.66
2022-11-20T15:41:37.305Z,99155.16
2022-11-20T15:44:05.555Z,99163.38
2022-11-20T15:46:39.258Z,99160.09
2022-11-20T15:49:06.780Z,99164.94
2022-11-20T15:51:38.655Z,99172.63
2022-11-20T15:54:18.458Z,99166.69
2022-11-20T15:56:45.205Z,99166.09
2022-11-20T15:59:11.912Z,99172.25
2022-11-20T16:01:38.804Z,99169.56
2022-11-20T16:04:08.849Z,99160.41
2022-11-20T16:06:35.519Z,99159.84
2022-11-20T16:09:02.164Z,99155.19
2022-11-20T16:11:28.955Z,99157.72
2022-11-20T16:14:14.136Z,99157.25
2022-11-20T16:16:41.754Z,99152.03
2022-11-20T16:19:14.851Z,99153.09
2022-11-20T16:21:42.584Z,99156.75
2022-11-20T16:24:11.908Z,99153.97
2022-11-20T16:26:38.612Z,99163.69
2022-11-20T16:29:06.194Z,99158.03
2022-11-20T16:31:33.141Z,99164.78
2022-11-20T16:34:03.901Z,99166.69
2022-11-20T16:36:33.818Z,99166.88
2022-11-20T16:39:02.301Z,99168.31
2022-11-20T16:41:31.979Z,99168.50
2022-11-20T16:44:00.707Z,99157.03
2022-11-20T16:46:30.338Z,99164.44
2022-11-20T16:48:58.995Z,99160.66
2022-11-20T16:51:26.742Z,99156.69
2022-11-20T16:53:55.944Z,99149.09
2022-11-20T16:56:25.370Z,99144.03
2022-11-20T16:58:54.617Z,99141.31
2022-11-20T17:01:25.532Z,99135.03
2022-11-20T17:03:57.358Z,99134.59
2022-11-20T17:06:26.430Z,99129.31
2022-11-20T17:08:54.483Z,99136.94
2022-11-20T17:11:21.202Z,99136.59
2022-11-20T17:13:48.490Z,99127.91
2022-11-20T17:16:20.146Z,99121.78
2022-11-20T17:18:47.200Z,99129.16
2022-11-20T17:21:14.134Z,99114.00
2022-11-20T17:23:42.567Z,99116.38
2022-11-20T17:26:10.410Z,99120.59
2022-11-20T17:28:38.184Z,99115.97
2022-11-20T17:31:07.293Z,99104.88
2022-11-20T17:33:35.574Z,99110.13
2022-11-20T17:36:02.412Z,99110.97
2022-11-20T17:38:29.180Z,99110.53
2022-11-20T17:41:06.222Z,99107.22
2022-11-20T17:43:35.887Z,99121.50
2022-11-20T17:46:14.769Z,99118.41
2022-11-20T17:48:44.075Z,99105.00
2022-11-20T17:51:42.070Z,99107.66
2022-11-20T17:54:10.515Z,99099.97
2022-11-20T17:56:55.898Z,99092.44
2022-11-20T17:59:22.926Z,99090.13
2022-11-20T18:01:49.910Z,99091.47
2022-11-20T18:04:17.287Z,99099.50
2022-11-20T18:06:44.215Z,99094.09
2022-11-20T18:09:10.997Z,99094.22
2022-11-20T18:11:39.581Z,99090.31
2022-11-20T18:14:29.171Z,99092.44
2022-11-20T18:16:57.748Z,99098.06
2022-11-20T18:19:31.966Z,99103.00
2022-11-20T18:22:01.353Z,99116.78
2022-11-20T18:24:28.387Z,99122.72
2022-11-20T18:26:55.271Z,99128.69
2022-11-20T18:29:22.371Z,99120.13
2022-11-20T18:31:49.592Z,99120.44
2022-11-20T18:34:17.801Z,99131.03
2022-11-20T18:36:45.331Z,99138.59
2022-11-20T18:39:12.846Z,99139.66
2022-11-20T18:41:58.827Z,99147.25
2022-11-20T18:44:46.496Z,99146.47
2022-11-20T18:47:17.889Z,99152.44
2022-11-20T18:49:54.678Z,99160.44
2022-11-20T18:52:26.710Z,99155.53
2022-11-20T18:54:54.422Z,99157.13
2022-11-20T18:57:23.672Z,99163.06
2022-11-20T18:59:50.769Z,99171.34
2022-11-20T19:02:19.040Z,99165.66
2022-11-20T19:04:46.059Z,99160.78
2022-11-20T19:07:13.244Z,99156.34
2022-11-20T19:09:44.022Z,99157.13
2022-11-20T19:12:12.468Z,99149.66
2022-11-20T19:14:39.265Z,99161.78
2022-11-20T19:17:06.961Z,99162.53
2022-11-20T19:19:34.813Z,99151.69
2022-11-20T19:22:01.491Z,99162.53
2022-11-20T19:24:28.753Z,99152.22
2022-11-20T19:26:56.212Z,99146.00
2022-11-20T19:29:24.127Z,99158.91
2022-11-20T19:31:51.075Z,99170.81
2022-11-20T19:34:17.817Z,99163.81
2022-11-20T19:36:45.163Z,99170.81
2022-11-20T19:39:12.397Z,99178.03
2022-11-20T19:41:40.066Z,99172.88
2022-11-20T19:44:09.712Z,99155.28
2022-11-20T19:46:37.692Z,99150.41
2022-11-20T19:49:05.580Z,99140.06
2022-11-20T19:51:34.770Z,99134.59
2022-11-20T19:54:02.468Z,99150.13
2022-11-20T19:56:30.287Z,99155.84
2022-11-20T19:58:57.683Z,99151.72
2022-11-20T20:01:26.687Z,99155.06
2022-11-20T20:03:53.963Z,99140.59
2022-11-20T20:06:22.932Z,99142.44
2022-11-20T20:08:57.771Z,99139.78
2022-11-20T20:11:26.330Z,99136.13
2022-11-20T20:13:53.591Z,99136.34
2022-11-20T20:16:22.255Z,99143.09
2022-11-20T20:18:48.950Z,99133.00
2022-11-20T20:21:18.480Z,99132.44
2022-11-20T20:23:45.282Z,99126.94
2022-11-20T20:26:12.394Z,99114.78
2022-11-20T20:28:39.257Z,99111.91
2022-11-20T20:31:10.791Z,99109.34
2022-11-20T20:33:38.673Z,99110.38
2022-11-20T20:36:06.417Z,99115.56
2022-11-20T20:38:33.593Z,99107.28
2022-11-20T20:41:00.545Z,99097.22
2022-11-20T20:43:27.444Z,99093.34
2022-11-20T20:45:55.109Z,99086.88
2022-11-20T20:48:24.035Z,99080.72
2022-11-20T20:51:02.663Z,99091.66
2022-11-20T20:53:30.775Z,99092.28
2022-11-20T20:55:58.888Z,99093.56
2022-11-20T20:58:26.268Z,99112.44
2022-11-20T21:00:53.352Z,99109.88
2022-11-20T21:03:20.328Z,99118.44
2022-11-20T21:05:47.217Z,99101.13
2022-11-20T21:08:22.766Z,99088.75
2022-11-20T21:10:49.923Z,99092.13
2022-11-20T21:13:16.888Z,99096.59
2022-11-20T21:15:46.554Z,99100.22
2022-11-20T21:18:13.217Z,99102.81
2022-11-20T21:20:58.702Z,99106.25
2022-11-20T21:23:25.467Z,99109.09
2022-11-20T21:25:52.272Z,99108.09
2022-11-20T21:28:18.956Z,99100.09
2022-11-20T21:30:46.047Z,99099.88
2022-11-20T21:33:12.966Z,99103.78
2022-11-20T21:35:39.782Z,99109.97
2022-11-20T21:38:06.422Z,99118.00
2022-11-20T21:40:33.139Z,99116.44
2022-11-20T21:42:59.784Z,99112.03
2022-11-20T21:45:26.471Z,99112.03
2022-11-20T21:47:55.119Z,99119.00
2022-11-20T21:50:22.282Z,99109.44
2022-11-20T21:52:48.978Z,99118.47
2022-11-20T21:55:15.722Z,99121.81
2022-11-20T21:57:42.378Z,99107.31
2022-11-20T22:00:12.352Z,99101.34
2022-11-20T22:02:40.363Z,99104.94
2022-11-20T22:05:08.027Z,99102.59
2022-11-20T22:07:35.292Z,99100.53
2022-11-20T22:10:02.123Z,99096.63
2022-11-20T22:12:28.873Z,99105.94
2022-11-20T22:14:55.622Z,99104.38
2022-11-20T22:17:42.339Z,99106.94
2022-11-20T22:20:09.901Z,99102.00
2022-11-20T22:22:36.683Z,99096.28
2022-11-20T22:25:03.473Z,99098.84
2022-11-20T22:27:30.182Z,99092.88
2022-11-20T22:29:56.843Z,99083.31
2022-11-20T22:32:23.553Z,99080.72
2022-11-20T22:34:50.234Z,99077.34
2022-11-20T22:37:17.029Z,99070.94
2022-11-20T22:39:43.665Z,99061.63
2022-11-20T22:42:10.312Z,99066.50
2022-11-20T22:44:36.946Z,99055.13
2022-11-20T22:47:07.456Z,99058.75
2022-11-20T22:49:36.840Z,99054.63
2022-11-20T22:52:03.572Z,99048.16
2022-11-20T22:54:30.256Z,99051.03
2022-11-20T22:56:56.926Z,99046.38
2022-11-20T22:59:23.589Z,99050.81
2022-11-20T23:01:50.370Z,99044.09
2022-11-20T23:04:17.057Z,99043.31
2022-11-20T23:06:43.803Z,99031.19
2022-11-20T23:09:12.719Z,99029.38
2022-11-20T23:11:39.442Z,99031.47
2022-11-20T23:14:10.817Z,99035.59
2022-11-20T23:16:37.612Z,99029.94
2022-11-20T23:19:10.647Z,99013.66
2022-11-20T23:21:39.119Z,99025.34
2022-11-20T23:24:06.341Z,99013.69
2022-11-20T23:26:35.155Z,99018.13
2022-11-20T23:29:01.948Z,99022.31
2022-11-20T23:31:30.571Z,99015.59
2022-11-20T23:33:57.620Z,99023.66
2022-11-20T23:36:24.390Z,99022.88
2022-11-20T23:38:51.118Z,99018.97
2022-11-20T23:41:18.083Z,99011.47
2022-11-20T23:43:44.753Z,99009.44
2022-11-20T23:46:15.209Z,99018.22
2022-11-20T23:48:44.814Z,99001.72
2022-11-20T23:51:11.504Z,99001.97
2022-11-20T23:53:38.206Z,99000.63
2022-11-20T23:56:05.917Z,99002.19
2022-11-20T23:58:35.069Z,99008.41
